Gary, Indiana
Current Conditions -  °F | °C
As of 10:55 PM on Friday 24 Oct 2014 (Local Time) from KGYY Reporting Station
Overcast Overcast  
Wind Chill: 61°   Ceiling: 4600
Heat Index: 61°   Visibility: 10mi
Dew Point: 48°   Wind: 7mph
Humidity: 63%   Direction: 230°SW
Pressure: 29.95"   Gusts: NA
Location:  41.6°N, 87.34°W
Report Text: KGYY 250355Z AUTO 23006KT 10SM OVC046 16/09 A2995 RMK AO2 T01600090
Loading
Personal Weather Stations






























Interactive Weather Map
Tropical Storm Tracking
New forecast layout! Learn more

10-Day Weather Forecast

Advertisements
Track Severe Weather on mobile